Terminal Aerodrome Forecast
Issued by NWS Charleston, WV

Current Version | Previous Version | Graphics & Text | Print | Product List | Glossary On
Versions: 1 2 3 4 5 6 7 8 9 10 11 12 13 14 15 16 17 18
000
FTUS41 KRLX 271100
TAFCRW
TAF
KCRW 271121Z 2712/2812 00000KT P6SM SCT080 BKN120
     FM271500 VRB04KT P6SM BKN110
     FM280500 00000KT P6SM OVC030
     FM280900 00000KT 5SM -SHRA BR OVC025
     FM281100 00000KT 2SM -SHRA BR OVC020=

USA.gov is the U.S. government's official web portal to all federal, state and local government web resources and services.